Terminal Aerodrome Forecast
Issued by NWS

Home | Current Version | Previous Version | Graphics & Text | Print | Product List | Glossary On
Versions: 1 2 3 4 5 6 7 8 9 10 11 12 13 14 15 16
477
FTUS43 KIWX 201742
TAFSBN
TAF
KSBN 201742Z 2018/2118 15012G19KT P6SM BKN200
     FM210700 19013KT P6SM VCSH BKN070
     FM210900 19012KT 4SM -SHRA BR OVC030
     FM211100 20011KT 3SM -SHRA BR OVC015
     FM211300 23008KT 3SM -SHRA BR BKN009
     FM211600 24007KT 3SM -SHRA BR BKN012
     FM211700 26007KT 4SM -SHRA BR BKN040=

USA.gov is the U.S. government's official web portal to all federal, state and local government web resources and services.